Time;durP1;ratioP1;P1;durP2;ratioP2;P2;SDS_P1;SDS_P2;PMS_P1;PMS_P2;Temp;Humidity;BMP_temperature;BMP_pressure;BME280_temperature;BME280_humidity;BME280_pressure;Samples;Min_cycle;Max_cycle;Signal;HPM_P1;HPM_P2
2024/01/25 00:01:11;;;;;;;48.72;8.68;;;6.70;99.90;;;;;;5092527;28;20052;-86
2024/01/25 00:03:37;;;;;;;45.30;8.65;;;6.60;99.90;;;;;;5093467;28;20054;-78
2024/01/25 00:06:04;;;;;;;58.15;9.80;;;6.60;99.90;;;;;;5092358;28;20047;-81
2024/01/25 00:08:29;;;;;;;37.33;8.50;;;6.60;99.90;;;;;;5092186;28;20080;-78
2024/01/25 00:10:55;;;;;;;56.35;10.68;;;6.60;99.90;;;;;;5090926;28;20091;-80
2024/01/25 00:13:21;;;;;;;51.47;9.88;;;6.50;99.90;;;;;;5092150;28;20053;-84
2024/01/25 00:15:47;;;;;;;57.05;11.00;;;6.50;99.90;;;;;;5090883;28;20424;-80
2024/01/25 00:18:12;;;;;;;52.58;9.73;;;6.50;99.90;;;;;;5092432;28;20044;-79
2024/01/25 00:20:38;;;;;;;64.20;9.45;;;6.50;99.90;;;;;;5093238;28;20048;-85
2024/01/25 00:23:04;;;;;;;43.33;8.32;;;6.50;99.90;;;;;;5092881;28;20079;-76
2024/01/25 00:25:29;;;;;;;58.28;9.15;;;6.50;99.90;;;;;;5092314;28;20469;-83
2024/01/25 00:27:55;;;;;;;49.90;9.18;;;6.40;99.90;;;;;;5090809;28;20134;-80
2024/01/25 00:30:21;;;;;;;51.67;8.80;;;6.40;99.90;;;;;;5090688;28;20407;-80
2024/01/25 00:32:47;;;;;;;47.38;9.07;;;6.40;99.90;;;;;;5091520;28;20044;-85
2024/01/25 00:35:14;;;;;;;51.42;10.25;;;6.40;99.90;;;;;;5091984;28;20511;-75
2024/01/25 00:37:41;;;;;;;44.35;9.50;;;6.40;99.90;;;;;;5091893;28;20052;-77
2024/01/25 00:40:08;;;;;;;63.63;10.27;;;6.40;99.90;;;;;;5090273;28;20052;-87
2024/01/25 00:42:40;;;;;;;45.10;8.20;;;6.40;99.90;;;;;;5092112;28;20068;-84
2024/01/25 00:45:07;;;;;;;58.75;9.50;;;6.40;99.90;;;;;;5092998;28;20108;-78
2024/01/25 00:47:33;;;;;;;65.63;11.00;;;6.30;99.90;;;;;;5073509;28;20052;-79
2024/01/25 00:49:59;;;;;;;58.50;9.65;;;6.30;99.90;;;;;;5090894;28;20088;-81
2024/01/25 00:52:25;;;;;;;49.72;10.65;;;6.30;99.90;;;;;;5091842;28;20615;-78
2024/01/25 00:54:51;;;;;;;36.35;8.05;;;6.30;99.90;;;;;;5090540;28;20228;-84
2024/01/25 00:57:16;;;;;;;53.33;10.23;;;6.30;99.90;;;;;;5092116;28;20512;-77
2024/01/25 00:59:42;;;;;;;45.42;9.85;;;6.20;99.90;;;;;;5090340;28;20071;-81
2024/01/25 01:02:12;;;;;;;42.17;8.50;;;6.20;99.90;;;;;;5092180;28;20407;-81
2024/01/25 01:04:38;;;;;;;39.80;8.02;;;6.20;99.90;;;;;;5093547;28;20056;-83
2024/01/25 01:07:04;;;;;;;49.10;8.70;;;6.20;99.90;;;;;;5097573;28;20060;-77
2024/01/25 01:09:30;;;;;;;64.28;13.57;;;6.20;99.90;;;;;;5099625;28;20104;-78
2024/01/25 01:11:55;;;;;;;44.47;8.57;;;6.20;99.90;;;;;;5100527;28;20098;-75
2024/01/25 01:14:21;;;;;;;58.92;10.20;;;6.20;99.90;;;;;;5100880;28;20412;-78
2024/01/25 01:16:47;;;;;;;56.40;10.15;;;6.20;99.90;;;;;;5097066;28;20090;-82
2024/01/25 01:19:12;;;;;;;52.80;10.63;;;6.20;99.90;;;;;;5090344;28;20051;-87
2024/01/25 01:21:41;;;;;;;60.25;10.90;;;6.20;99.90;;;;;;5090091;28;20067;-83
2024/01/25 01:24:06;;;;;;;54.03;9.52;;;6.10;99.90;;;;;;5089901;28;20044;-83
2024/01/25 01:26:35;;;;;;;48.83;10.18;;;6.10;99.90;;;;;;5091751;28;20047;-83
2024/01/25 01:29:00;;;;;;;43.15;9.32;;;6.10;99.90;;;;;;5091401;28;20052;-82
2024/01/25 01:31:26;;;;;;;62.00;10.25;;;6.10;99.90;;;;;;5091208;28;20075;-81
2024/01/25 01:33:51;;;;;;;59.65;10.45;;;6.10;99.90;;;;;;5091202;28;20044;-82
2024/01/25 01:36:17;;;;;;;50.42;8.35;;;6.10;99.90;;;;;;5090829;28;20087;-80
2024/01/25 01:38:43;;;;;;;53.10;9.48;;;6.10;99.90;;;;;;5091287;28;20067;-80
2024/01/25 01:41:12;;;;;;;62.33;11.50;;;6.00;99.90;;;;;;5089560;28;20055;-82
2024/01/25 01:43:38;;;;;;;47.78;9.65;;;6.10;99.90;;;;;;5090836;28;20552;-81
2024/01/25 01:46:11;;;;;;;47.55;8.95;;;6.10;99.90;;;;;;5091272;28;20048;-84
2024/01/25 01:48:40;;;;;;;52.75;9.48;;;6.00;99.90;;;;;;5091810;28;20109;-82
2024/01/25 01:51:08;;;;;;;46.65;9.82;;;6.00;99.90;;;;;;5090795;28;20056;-88
2024/01/25 01:53:35;;;;;;;56.53;10.50;;;6.00;99.90;;;;;;5089704;28;20048;-79
2024/01/25 01:56:00;;;;;;;56.15;9.23;;;6.00;99.90;;;;;;5089804;28;20059;-79
2024/01/25 01:58:28;;;;;;;58.55;10.75;;;6.00;99.90;;;;;;5072876;28;20056;-82
2024/01/25 02:00:55;;;;;;;56.25;10.30;;;6.00;99.90;;;;;;5090986;28;20051;-83
2024/01/25 02:03:21;;;;;;;49.63;9.05;;;6.10;99.90;;;;;;5090535;28;20075;-87
2024/01/25 02:05:47;;;;;;;53.03;10.68;;;6.00;99.90;;;;;;5091592;28;20036;-82
2024/01/25 02:08:13;;;;;;;43.92;9.80;;;6.00;99.90;;;;;;5090778;28;20059;-80
2024/01/25 02:10:38;;;;;;;70.70;9.85;;;6.00;99.90;;;;;;5091146;28;20052;-76
2024/01/25 02:13:04;;;;;;;56.03;10.23;;;6.00;99.90;;;;;;5089854;28;20086;-87
2024/01/25 02:15:30;;;;;;;68.18;11.23;;;5.90;99.90;;;;;;5090702;28;20490;-85
2024/01/25 02:17:56;;;;;;;57.63;11.25;;;6.00;99.90;;;;;;5072283;28;20522;-79
2024/01/25 02:20:21;;;;;;;57.85;9.40;;;6.00;99.90;;;;;;5091691;28;20048;-78
2024/01/25 02:22:47;;;;;;;65.55;10.75;;;5.90;99.90;;;;;;5093118;28;20377;-78
2024/01/25 02:25:13;;;;;;;46.63;10.88;;;6.00;99.90;;;;;;5094638;28;20048;-82
2024/01/25 02:27:39;;;;;;;52.22;10.82;;;6.00;99.90;;;;;;5094664;28;20075;-82
2024/01/25 02:30:06;;;;;;;48.90;8.07;;;5.90;99.90;;;;;;5094748;28;20071;-89
2024/01/25 02:32:32;;;;;;;41.72;8.02;;;5.90;99.90;;;;;;5094224;28;20048;-76
2024/01/25 02:34:58;;;;;;;58.13;9.70;;;5.90;99.90;;;;;;5092650;28;20088;-78
2024/01/25 02:37:24;;;;;;;69.10;11.18;;;5.90;99.90;;;;;;5092670;28;20052;-78
2024/01/25 02:39:51;;;;;;;60.72;11.18;;;5.90;99.90;;;;;;5094252;28;20134;-75
2024/01/25 02:42:16;;;;;;;57.85;9.18;;;5.80;99.90;;;;;;5094059;28;20083;-80
2024/01/25 02:44:43;;;;;;;71.20;10.23;;;5.90;99.90;;;;;;5094272;28;20075;-83
2024/01/25 02:47:09;;;;;;;52.50;8.15;;;5.80;99.90;;;;;;5094056;28;20419;-80
2024/01/25 02:49:35;;;;;;;42.17;10.07;;;5.80;99.90;;;;;;5094058;28;20190;-79
2024/01/25 02:52:01;;;;;;;56.47;9.13;;;5.80;99.90;;;;;;5093191;28;20119;-76
2024/01/25 02:54:27;;;;;;;50.75;9.48;;;5.80;99.90;;;;;;5075451;28;20058;-86
2024/01/25 02:56:53;;;;;;;52.97;8.55;;;5.80;99.90;;;;;;5092160;28;20040;-85
2024/01/25 02:59:18;;;;;;;53.60;10.27;;;5.80;99.90;;;;;;5094034;28;20408;-77
2024/01/25 03:01:45;;;;;;;48.75;8.90;;;5.80;99.90;;;;;;5093676;28;20048;-77
2024/01/25 03:04:11;;;;;;;58.75;10.02;;;5.80;99.90;;;;;;5092135;28;20051;-82
2024/01/25 03:06:37;;;;;;;69.70;13.45;;;5.80;99.90;;;;;;5092963;28;20052;-84
2024/01/25 03:09:04;;;;;;;58.83;10.50;;;5.70;99.90;;;;;;5094590;28;20586;-82
2024/01/25 03:11:30;;;;;;;53.78;9.00;;;5.70;99.90;;;;;;5093558;28;20136;-88
2024/01/25 03:13:56;;;;;;;43.10;8.43;;;5.70;99.90;;;;;;5092391;28;20058;-83
2024/01/25 03:16:23;;;;;;;54.67;8.95;;;5.70;99.90;;;;;;5093961;28;20404;-80
2024/01/25 03:18:48;;;;;;;63.83;8.63;;;5.70;99.90;;;;;;5091949;28;20500;-84
2024/01/25 03:21:14;;;;;;;43.72;10.48;;;5.70;99.90;;;;;;5075501;28;20051;-83
2024/01/25 03:23:40;;;;;;;45.33;9.02;;;5.70;99.90;;;;;;5093939;28;20052;-80
2024/01/25 03:26:05;;;;;;;55.15;11.88;;;5.70;99.90;;;;;;5095858;28;20048;-84
2024/01/25 03:28:33;;;;;;;58.80;11.20;;;5.70;99.90;;;;;;5093597;28;20136;-77
2024/01/25 03:30:58;;;;;;;53.53;9.80;;;5.60;99.90;;;;;;5094065;28;20048;-79
2024/01/25 03:33:25;;;;;;;52.08;9.30;;;5.60;99.90;;;;;;5096744;28;20044;-76
2024/01/25 03:35:51;;;;;;;57.88;10.73;;;5.60;99.90;;;;;;5097651;28;20087;-74
2024/01/25 03:38:17;;;;;;;61.08;10.38;;;5.50;99.90;;;;;;5101002;28;20054;-78
2024/01/25 03:40:43;;;;;;;47.47;9.10;;;5.50;99.90;;;;;;5104200;28;20377;-80
2024/01/25 03:43:08;;;;;;;54.65;10.05;;;5.50;99.90;;;;;;5106320;28;20052;-77
2024/01/25 03:45:34;;;;;;;62.75;12.00;;;5.50;99.90;;;;;;5085700;28;20575;-79
2024/01/25 03:48:00;;;;;;;51.28;9.73;;;5.50;99.90;;;;;;5081587;28;20054;-87
2024/01/25 03:50:26;;;;;;;55.47;8.93;;;5.50;99.90;;;;;;5108063;28;20052;-77
2024/01/25 03:52:52;;;;;;;63.80;10.63;;;5.50;99.90;;;;;;5098687;28;20052;-83
2024/01/25 03:55:18;;;;;;;49.55;9.40;;;5.50;99.90;;;;;;5093172;28;20040;-82
2024/01/25 03:57:44;;;;;;;53.90;9.63;;;5.50;99.90;;;;;;5092764;28;20047;-78
2024/01/25 04:00:11;;;;;;;66.05;11.50;;;5.50;99.90;;;;;;5091342;28;20056;-84
2024/01/25 04:02:37;;;;;;;54.20;9.38;;;5.40;99.90;;;;;;5093429;28;20071;-83
2024/01/25 04:05:03;;;;;;;62.67;9.82;;;5.40;99.90;;;;;;5091078;28;20051;-82
2024/01/25 04:07:29;;;;;;;59.67;10.30;;;5.40;99.90;;;;;;5092433;28;20209;-86
2024/01/25 04:09:55;;;;;;;66.85;10.00;;;5.40;99.90;;;;;;5094346;28;20135;-77
2024/01/25 04:12:20;;;;;;;60.90;9.52;;;5.40;99.90;;;;;;5090725;28;20109;-82
2024/01/25 04:14:46;;;;;;;49.67;8.13;;;5.50;99.90;;;;;;5092282;28;20051;-75
2024/01/25 04:17:12;;;;;;;48.28;8.15;;;5.40;99.90;;;;;;5092497;28;20475;-82
2024/01/25 04:19:37;;;;;;;63.78;11.23;;;5.40;99.90;;;;;;5091985;28;20559;-82
2024/01/25 04:22:03;;;;;;;57.03;10.00;;;5.40;99.90;;;;;;5091320;28;20044;-82
2024/01/25 04:24:29;;;;;;;57.72;12.13;;;5.40;99.90;;;;;;5090905;28;20404;-81
2024/01/25 04:26:55;;;;;;;47.58;9.70;;;5.30;99.90;;;;;;5092168;28;20412;-81
2024/01/25 04:29:20;;;;;;;56.60;12.57;;;5.30;99.90;;;;;;5092182;28;20052;-86
2024/01/25 04:31:48;;;;;;;56.00;11.50;;;5.30;99.90;;;;;;5091146;28;20388;-82
2024/01/25 04:34:14;;;;;;;62.55;9.45;;;5.30;99.90;;;;;;5095769;28;20102;-84
2024/01/25 04:36:40;;;;;;;67.93;11.13;;;5.30;99.90;;;;;;5092550;28;20537;-79
2024/01/25 04:39:06;;;;;;;52.88;9.65;;;5.30;99.90;;;;;;5090475;28;20052;-80
2024/01/25 04:41:31;;;;;;;56.83;11.30;;;5.30;99.90;;;;;;5090937;28;20131;-82
2024/01/25 04:43:57;;;;;;;51.42;8.15;;;5.30;99.90;;;;;;5090434;28;20396;-84
2024/01/25 04:46:23;;;;;;;49.65;8.50;;;5.30;99.90;;;;;;5090874;28;20083;-85
2024/01/25 04:48:49;;;;;;;47.60;9.27;;;5.30;99.90;;;;;;5090605;28;20055;-80
2024/01/25 04:51:22;;;;;;;58.63;9.60;;;5.30;99.90;;;;;;5107197;28;20577;-83
2024/01/25 04:53:48;;;;;;;49.75;8.68;;;5.30;99.90;;;;;;5092364;28;20051;-84
2024/01/25 04:56:14;;;;;;;49.67;7.40;;;5.20;99.90;;;;;;5092013;28;20052;-80
2024/01/25 04:58:40;;;;;;;57.95;8.95;;;5.20;99.90;;;;;;5091595;28;20052;-85
2024/01/25 05:01:06;;;;;;;49.35;9.75;;;5.20;99.90;;;;;;5090658;28;20044;-86
2024/01/25 05:03:33;;;;;;;71.35;10.07;;;5.10;99.90;;;;;;5091254;28;20550;-82
2024/01/25 05:05:58;;;;;;;49.72;8.13;;;5.20;99.90;;;;;;5091293;28;20545;-85
2024/01/25 05:08:24;;;;;;;57.33;9.07;;;5.20;99.90;;;;;;5091778;28;20102;-84
2024/01/25 05:10:50;;;;;;;48.53;8.30;;;5.10;99.90;;;;;;5072946;28;20052;-80
2024/01/25 05:13:15;;;;;;;46.30;9.52;;;5.10;99.90;;;;;;5090332;28;20094;-84
2024/01/25 05:15:41;;;;;;;46.85;8.02;;;5.10;99.90;;;;;;5091823;28;20118;-83
2024/01/25 05:18:07;;;;;;;57.33;7.30;;;5.20;99.90;;;;;;5091759;28;20048;-80
2024/01/25 05:20:33;;;;;;;41.65;7.70;;;5.20;99.90;;;;;;5090574;28;20504;-85
2024/01/25 05:23:00;;;;;;;50.08;8.07;;;5.10;99.90;;;;;;5091392;28;20504;-84
2024/01/25 05:25:29;;;;;;;47.10;9.35;;;5.20;99.90;;;;;;5091256;28;20138;-81
2024/01/25 05:27:55;;;;;;;63.72;11.65;;;5.20;99.90;;;;;;5091149;28;20131;-83
2024/01/25 05:30:22;;;;;;;52.85;8.48;;;5.10;99.90;;;;;;5089758;28;20056;-82
2024/01/25 05:32:49;;;;;;;43.53;6.90;;;5.20;99.90;;;;;;5091493;28;20044;-85
2024/01/25 05:35:15;;;;;;;53.90;8.18;;;5.10;99.90;;;;;;5091263;28;20501;-80
2024/01/25 05:37:42;;;;;;;54.00;10.70;;;5.00;99.90;;;;;;5090268;28;20048;-89
2024/01/25 05:40:09;;;;;;;53.88;8.40;;;4.90;99.90;;;;;;5093817;28;20052;-85
2024/01/25 05:42:35;;;;;;;65.68;11.35;;;4.90;99.90;;;;;;5094447;28;20063;-84
2024/01/25 05:45:02;;;;;;;63.08;8.77;;;4.80;99.90;;;;;;5094316;28;20066;-81
2024/01/25 05:47:27;;;;;;;53.63;7.40;;;4.80;99.90;;;;;;5092483;28;20519;-81
2024/01/25 05:49:53;;;;;;;59.08;10.82;;;4.80;99.90;;;;;;5091514;28;20051;-78
2024/01/25 05:52:21;;;;;;;37.88;7.47;;;4.70;99.90;;;;;;5091357;28;20052;-76
2024/01/25 05:54:46;;;;;;;45.45;7.38;;;4.80;99.90;;;;;;5092227;28;20048;-78
2024/01/25 05:57:12;;;;;;;51.88;9.40;;;4.80;99.90;;;;;;5094986;28;20100;-76
2024/01/25 05:59:38;;;;;;;51.38;9.15;;;4.70;99.90;;;;;;5095156;28;20052;-84
2024/01/25 06:02:05;;;;;;;36.70;7.05;;;4.70;99.90;;;;;;5094549;28;20048;-77
2024/01/25 06:04:31;;;;;;;60.13;7.90;;;4.80;99.90;;;;;;5107659;28;20113;-77
2024/01/25 06:06:57;;;;;;;54.70;8.23;;;4.60;99.90;;;;;;5115213;28;20047;-78
2024/01/25 06:09:24;;;;;;;60.20;9.98;;;4.70;99.90;;;;;;5114815;28;20056;-77
2024/01/25 06:11:50;;;;;;;58.15;9.63;;;4.70;99.90;;;;;;5115282;28;20086;-76
2024/01/25 06:14:16;;;;;;;59.88;8.60;;;4.70;99.90;;;;;;5115355;28;20494;-76
2024/01/25 06:16:41;;;;;;;51.50;7.65;;;4.60;99.90;;;;;;5097022;28;20047;-75
2024/01/25 06:19:07;;;;;;;51.90;8.40;;;4.60;99.90;;;;;;5115289;28;20396;-76
2024/01/25 06:21:35;;;;;;;60.60;7.75;;;4.50;99.90;;;;;;5114849;28;20046;-82
2024/01/25 06:24:01;;;;;;;58.17;8.10;;;4.50;99.90;;;;;;5114762;28;20075;-77
2024/01/25 06:26:27;;;;;;;54.92;9.90;;;4.50;99.90;;;;;;5114799;28;20047;-80
2024/01/25 06:28:53;;;;;;;56.40;10.50;;;4.40;99.90;;;;;;5096083;28;20055;-75
2024/01/25 06:31:18;;;;;;;57.17;8.57;;;4.40;99.90;;;;;;5114734;28;20043;-78
2024/01/25 06:33:47;;;;;;;51.47;7.45;;;4.40;99.90;;;;;;5079458;28;20051;-76
2024/01/25 06:36:16;;;;;;;61.90;11.30;;;4.40;99.90;;;;;;5114517;28;20517;-79
2024/01/25 06:38:41;;;;;;;55.20;8.80;;;4.40;99.90;;;;;;5114518;28;20138;-82
2024/01/25 06:41:08;;;;;;;52.17;11.13;;;4.30;99.90;;;;;;5114570;28;20565;-84
2024/01/25 06:43:34;;;;;;;83.68;10.40;;;4.30;99.90;;;;;;5114576;28;20094;-85
2024/01/25 06:46:00;;;;;;;54.05;9.13;;;4.30;99.90;;;;;;5115072;28;20075;-77
2024/01/25 06:48:25;;;;;;;62.97;9.80;;;4.30;99.90;;;;;;5114790;28;20047;-78
2024/01/25 06:50:51;;;;;;;60.17;10.65;;;4.30;99.90;;;;;;5114318;28;20059;-76
2024/01/25 06:53:17;;;;;;;63.00;9.60;;;4.30;99.90;;;;;;5114410;28;20118;-80
2024/01/25 06:55:43;;;;;;;70.75;10.45;;;4.20;99.90;;;;;;5114166;28;20047;-79
2024/01/25 06:58:08;;;;;;;63.30;10.25;;;4.30;99.90;;;;;;5114227;28;20100;-76
2024/01/25 07:00:34;;;;;;;68.82;12.52;;;4.30;99.90;;;;;;5113961;28;20056;-82
2024/01/25 07:03:00;;;;;;;71.80;9.70;;;4.20;99.90;;;;;;5114085;28;20040;-84
2024/01/25 07:05:26;;;;;;;58.60;11.48;;;4.30;99.90;;;;;;5111894;28;20060;-86
2024/01/25 07:07:52;;;;;;;63.17;11.70;;;4.20;99.90;;;;;;5094794;28;20518;-86
2024/01/25 07:10:18;;;;;;;65.47;9.95;;;4.10;99.90;;;;;;5115640;28;20459;-81
2024/01/25 07:12:44;;;;;;;89.40;12.77;;;4.10;99.90;;;;;;5113691;28;20055;-82
2024/01/25 07:15:10;;;;;;;70.93;11.82;;;4.00;99.90;;;;;;5078994;28;20173;-84
2024/01/25 07:17:35;;;;;;;56.33;9.38;;;4.00;99.90;;;;;;5095610;28;20081;-83
2024/01/25 07:20:01;;;;;;;71.00;11.93;;;4.00;99.90;;;;;;5113911;28;20097;-85
2024/01/25 07:22:27;;;;;;;73.60;12.85;;;4.00;99.90;;;;;;5113759;28;20585;-79
2024/01/25 07:24:53;;;;;;;60.78;10.10;;;4.00;99.90;;;;;;5113775;28;20058;-79
2024/01/25 07:27:18;;;;;;;82.45;12.93;;;4.00;99.90;;;;;;5113855;28;20126;-84
2024/01/25 07:29:45;;;;;;;61.08;10.75;;;4.10;99.90;;;;;;5113647;28;20537;-80
2024/01/25 07:32:12;;;;;;;69.97;10.23;;;4.10;99.90;;;;;;5095077;28;20040;-83
2024/01/25 07:34:37;;;;;;;67.55;10.70;;;4.10;99.90;;;;;;5113718;28;20091;-83
2024/01/25 07:37:03;;;;;;;80.13;13.40;;;4.10;99.90;;;;;;5113680;28;20083;-82
2024/01/25 07:39:29;;;;;;;55.97;10.77;;;4.10;99.90;;;;;;5113719;28;20051;-80
2024/01/25 07:41:55;;;;;;;75.95;13.60;;;4.10;99.90;;;;;;5113715;28;20096;-82
2024/01/25 07:44:20;;;;;;;74.90;11.30;;;4.10;99.90;;;;;;5113482;28;20089;-79
2024/01/25 07:46:47;;;;;;;80.68;13.50;;;4.20;99.90;;;;;;5095397;28;20054;-83
2024/01/25 07:49:12;;;;;;;81.93;11.35;;;4.20;99.90;;;;;;5095191;28;20043;-82
2024/01/25 07:51:38;;;;;;;68.50;11.15;;;4.20;99.90;;;;;;5113697;28;20059;-81
2024/01/25 07:54:04;;;;;;;77.03;12.02;;;4.20;99.90;;;;;;5113446;28;20100;-81
2024/01/25 07:56:30;;;;;;;68.53;9.80;;;4.20;99.90;;;;;;5113615;28;20067;-82
2024/01/25 07:58:56;;;;;;;60.95;11.93;;;4.20;99.90;;;;;;5113204;28;20083;-81
2024/01/25 08:01:22;;;;;;;60.95;12.10;;;4.20;99.90;;;;;;5541412;22;20024;-85
2024/01/25 08:03:47;;;;;;;71.95;12.50;;;4.30;99.90;;;;;;5073123;28;20090;-83
2024/01/25 08:06:13;;;;;;;68.97;11.50;;;4.30;99.90;;;;;;5092765;28;20108;-86
2024/01/25 08:08:39;;;;;;;85.85;14.48;;;4.30;99.90;;;;;;5074165;28;20411;-85
2024/01/25 08:11:05;;;;;;;92.53;14.70;;;4.30;99.90;;;;;;5092583;28;20044;-81
2024/01/25 08:13:31;;;;;;;68.43;11.18;;;4.30;99.90;;;;;;5092986;28;20052;-84
2024/01/25 08:15:57;;;;;;;71.97;11.77;;;4.30;99.90;;;;;;5092517;28;20051;-83
2024/01/25 08:18:23;;;;;;;68.78;9.77;;;4.30;99.90;;;;;;5092342;28;20062;-82
2024/01/25 08:20:52;;;;;;;82.72;12.05;;;4.30;99.90;;;;;;5092432;28;20085;-79
2024/01/25 08:23:18;;;;;;;82.90;14.43;;;4.40;99.90;;;;;;5092162;28;20044;-80
2024/01/25 08:25:44;;;;;;;62.78;11.85;;;4.40;99.90;;;;;;5092478;28;20502;-79
2024/01/25 08:28:10;;;;;;;67.20;10.93;;;4.40;99.90;;;;;;5092114;28;20054;-82
2024/01/25 08:30:36;;;;;;;74.05;11.38;;;4.40;99.90;;;;;;5073506;28;20048;-81
2024/01/25 08:33:03;;;;;;;73.78;13.70;;;4.40;99.90;;;;;;5092409;28;20075;-84
2024/01/25 08:35:30;;;;;;;90.72;15.20;;;4.50;99.90;;;;;;5073588;28;20066;-85
2024/01/25 08:37:56;;;;;;;79.63;11.25;;;4.50;99.90;;;;;;5092929;28;20098;-83
2024/01/25 08:40:21;;;;;;;72.18;10.02;;;4.50;99.90;;;;;;5092246;28;20067;-85
2024/01/25 08:42:47;;;;;;;65.50;10.82;;;4.50;99.90;;;;;;5091800;28;20048;-79
2024/01/25 08:45:13;;;;;;;75.03;10.88;;;4.60;99.90;;;;;;5092049;28;20050;-82
2024/01/25 08:47:39;;;;;;;73.07;13.02;;;4.60;99.90;;;;;;5073415;28;20056;-79
2024/01/25 08:50:10;;;;;;;71.95;11.07;;;4.60;99.90;;;;;;5091767;28;20392;-87
2024/01/25 08:52:37;;;;;;;83.07;12.73;;;4.60;99.90;;;;;;5092231;28;20036;-86
2024/01/25 08:55:04;;;;;;;72.40;14.10;;;4.60;99.90;;;;;;5092618;28;20131;-83
2024/01/25 08:57:30;;;;;;;78.03;11.75;;;4.60;99.90;;;;;;5091699;28;20101;-76
2024/01/25 08:59:58;;;;;;;80.40;12.65;;;4.70;99.90;;;;;;5091589;28;20049;-82
2024/01/25 09:02:27;;;;;;;64.90;11.50;;;4.70;99.90;;;;;;5069741;28;20057;-84
2024/01/25 09:04:53;;;;;;;72.28;11.63;;;4.70;99.90;;;;;;5070177;28;20064;-85
2024/01/25 09:07:22;;;;;;;78.75;12.63;;;4.80;99.90;;;;;;5070006;28;20056;-81
2024/01/25 09:09:48;;;;;;;76.85;10.88;;;4.90;99.90;;;;;;5070204;28;20544;-87
2024/01/25 09:12:15;;;;;;;81.38;16.33;;;4.90;99.90;;;;;;5071668;28;20507;-80
2024/01/25 09:14:42;;;;;;;67.43;10.63;;;4.90;99.90;;;;;;5071392;28;20060;-82
2024/01/25 09:17:08;;;;;;;71.90;12.52;;;5.00;99.90;;;;;;5071387;28;20067;-77
2024/01/25 09:19:34;;;;;;;72.30;12.05;;;5.00;99.90;;;;;;5071542;28;20132;-83
2024/01/25 09:22:04;;;;;;;79.85;14.35;;;5.10;99.90;;;;;;5071530;28;20123;-84
2024/01/25 09:24:30;;;;;;;67.20;10.90;;;5.10;99.90;;;;;;5071297;28;20044;-82
2024/01/25 09:26:58;;;;;;;75.30;13.25;;;5.20;99.90;;;;;;5071249;28;20094;-81
2024/01/25 09:29:24;;;;;;;57.22;11.68;;;5.20;99.90;;;;;;5071754;28;20395;-87
2024/01/25 09:31:50;;;;;;;57.88;10.68;;;5.30;99.90;;;;;;5075561;28;20118;-87
2024/01/25 09:34:16;;;;;;;67.07;11.25;;;5.30;99.90;;;;;;5075662;28;20049;-81
2024/01/25 09:36:42;;;;;;;64.43;12.27;;;5.40;99.90;;;;;;5074708;28;20357;-84
2024/01/25 09:39:08;;;;;;;65.28;10.25;;;5.40;99.90;;;;;;5075575;28;20127;-80
2024/01/25 09:41:34;;;;;;;67.43;11.93;;;5.50;99.90;;;;;;5075616;28;20479;-83
2024/01/25 09:44:00;;;;;;;64.00;13.82;;;5.50;99.90;;;;;;5075281;28;20053;-77
2024/01/25 09:46:27;;;;;;;60.15;13.43;;;5.60;99.90;;;;;;5075622;28;20374;-83
2024/01/25 09:48:52;;;;;;;56.97;11.90;;;5.60;99.90;;;;;;5074709;28;20060;-83
2024/01/25 09:51:18;;;;;;;57.15;11.93;;;5.60;99.90;;;;;;5073400;28;20048;-83
2024/01/25 09:53:48;;;;;;;65.25;11.32;;;5.70;99.90;;;;;;5074587;28;20056;-85
2024/01/25 09:56:18;;;;;;;51.58;10.13;;;5.80;99.90;;;;;;5073741;28;20407;-83
2024/01/25 09:58:45;;;;;;;66.78;12.20;;;5.90;99.90;;;;;;5074741;28;20059;-80
2024/01/25 10:01:13;;;;;;;67.82;11.45;;;6.00;99.90;;;;;;5074612;28;20088;-86
2024/01/25 10:03:42;;;;;;;54.42;11.77;;;6.10;99.90;;;;;;5077470;28;20061;-84
2024/01/25 10:06:10;;;;;;;50.50;9.98;;;6.20;99.90;;;;;;5074582;28;20052;-85
2024/01/25 10:08:36;;;;;;;58.45;12.45;;;6.30;99.90;;;;;;5072997;28;20114;-79
2024/01/25 10:11:03;;;;;;;66.10;10.18;;;6.40;99.90;;;;;;5056485;28;20052;-80
2024/01/25 10:13:29;;;;;;;55.88;11.02;;;6.60;99.90;;;;;;5074487;28;20044;-80
2024/01/25 10:15:55;;;;;;;51.25;9.75;;;6.70;99.90;;;;;;5074604;28;20487;-83
2024/01/25 10:18:25;;;;;;;51.92;9.48;;;6.90;99.90;;;;;;5056659;28;20416;-86
2024/01/25 10:20:54;;;;;;;63.25;10.00;;;6.80;99.90;;;;;;5075134;28;20048;-82
2024/01/25 10:23:20;;;;;;;49.58;8.07;;;6.90;99.90;;;;;;5073393;28;20084;-82
2024/01/25 10:25:46;;;;;;;46.50;11.20;;;7.00;99.90;;;;;;5074760;28;20558;-87
2024/01/25 10:28:12;;;;;;;48.13;8.40;;;7.00;99.90;;;;;;5075006;28;20036;-88
2024/01/25 10:30:38;;;;;;;56.15;10.57;;;7.00;99.90;;;;;;5076475;28;20045;-87
2024/01/25 10:33:04;;;;;;;59.15;11.45;;;7.10;99.90;;;;;;5075434;28;20036;-77
2024/01/25 10:35:31;;;;;;;46.67;12.35;;;7.00;99.90;;;;;;5091732;28;20060;-75
2024/01/25 10:37:58;;;;;;;47.65;11.68;;;7.00;99.90;;;;;;5089315;28;20037;-84
2024/01/25 10:40:24;;;;;;;59.97;12.95;;;7.00;99.90;;;;;;5087657;28;20463;-86
2024/01/25 10:42:50;;;;;;;56.75;11.32;;;7.00;99.90;;;;;;5080523;28;20152;-79
2024/01/25 10:45:16;;;;;;;42.95;9.23;;;7.20;99.90;;;;;;5088267;28;20060;-78
2024/01/25 10:47:42;;;;;;;58.65;10.50;;;7.20;99.90;;;;;;5073340;28;20055;-76
2024/01/25 10:50:09;;;;;;;56.15;10.35;;;7.30;99.90;;;;;;5072274;28;20060;-80
2024/01/25 10:52:36;;;;;;;45.95;8.63;;;7.80;99.90;;;;;;5073904;28;20048;-77
2024/01/25 10:55:05;;;;;;;45.78;9.05;;;7.80;99.90;;;;;;5073546;28;20052;-76
2024/01/25 10:57:39;;;;;;;46.90;8.68;;;7.80;99.90;;;;;;5073736;28;20090;-79
2024/01/25 11:00:10;;;;;;;51.28;9.70;;;7.80;99.90;;;;;;5072042;28;20088;-79
2024/01/25 11:02:37;;;;;;;41.92;9.18;;;7.80;99.90;;;;;;5083781;28;20060;-78
2024/01/25 11:05:14;;;;;;;50.08;10.88;;;8.00;99.90;;;;;;5075629;28;20491;-83
2024/01/25 11:07:47;;;;;;;47.03;8.95;;;8.20;99.90;;;;;;5075293;28;20044;-80
2024/01/25 11:10:21;;;;;;;36.78;8.40;;;8.20;99.90;;;;;;5075423;28;20056;-79
2024/01/25 11:12:58;;;;;;;57.38;11.05;;;8.20;99.90;;;;;;5093732;28;20059;-83
2024/01/25 11:15:36;;;;;;;42.53;9.35;;;8.10;99.90;;;;;;5093783;28;20055;-78
2024/01/25 11:18:06;;;;;;;37.58;9.10;;;8.00;99.90;;;;;;5093971;28;20079;-81
2024/01/25 11:20:35;;;;;;;53.28;8.50;;;8.10;99.90;;;;;;5075403;28;20722;-75
2024/01/25 11:23:08;;;;;;;32.63;8.18;;;8.10;99.90;;;;;;5093481;28;20058;-77
2024/01/25 11:25:36;;;;;;;51.95;8.32;;;8.40;99.90;;;;;;5058773;28;20063;-86
2024/01/25 11:28:03;;;;;;;37.70;7.15;;;8.60;99.90;;;;;;5075265;28;20523;-84
2024/01/25 11:30:33;;;;;;;46.38;9.13;;;8.80;99.90;;;;;;5093123;28;20051;-77
2024/01/25 11:32:59;;;;;;;35.33;8.30;;;9.20;99.90;;;;;;5058508;28;20044;-84
2024/01/25 11:35:25;;;;;;;43.45;8.93;;;9.30;99.90;;;;;;5075735;28;20405;-75
2024/01/25 11:37:52;;;;;;;44.97;8.82;;;9.20;99.90;;;;;;5093183;28;20055;-76
2024/01/25 11:40:19;;;;;;;43.25;9.32;;;9.20;99.90;;;;;;5076173;28;20052;-81
2024/01/25 11:42:47;;;;;;;51.17;11.93;;;9.00;99.90;;;;;;5095429;28;20067;-78
2024/01/25 11:45:14;;;;;;;34.78;8.23;;;8.90;99.90;;;;;;5078081;28;20086;-87
2024/01/25 11:47:41;;;;;;;46.08;9.27;;;8.70;99.90;;;;;;5093704;28;20507;-82
2024/01/25 11:50:09;;;;;;;39.53;7.90;;;8.50;99.90;;;;;;5074983;28;20052;-83
2024/01/25 11:52:35;;;;;;;41.45;9.63;;;8.40;99.90;;;;;;5074225;28;20442;-78
2024/01/25 11:55:06;;;;;;;40.70;8.73;;;8.30;99.90;;;;;;5092772;28;20056;-76
2024/01/25 11:57:35;;;;;;;43.80;8.80;;;8.30;99.90;;;;;;5092777;28;20048;-77
2024/01/25 12:00:02;;;;;;;31.30;7.53;;;8.20;99.90;;;;;;5092891;28;20058;-76
2024/01/25 12:02:28;;;;;;;50.05;9.95;;;8.20;99.90;;;;;;5073917;28;20117;-79
2024/01/25 12:04:56;;;;;;;47.80;9.18;;;8.00;99.90;;;;;;5092580;28;20055;-77
2024/01/25 12:07:22;;;;;;;50.38;10.25;;;8.00;99.90;;;;;;5074429;28;20453;-79
2024/01/25 12:10:05;;;;;;;56.13;8.30;;;8.20;99.90;;;;;;5092265;28;20051;-81
2024/01/25 12:12:31;;;;;;;47.88;9.68;;;8.40;99.90;;;;;;5074112;28;20158;-87
2024/01/25 12:15:00;;;;;;;42.38;8.35;;;8.80;99.90;;;;;;5092467;28;20048;-88
2024/01/25 12:17:28;;;;;;;37.50;8.05;;;9.40;99.90;;;;;;5092570;28;20101;-85
2024/01/25 12:19:58;;;;;;;29.00;7.63;;;10.30;99.90;;;;;;5074200;28;20074;-84
2024/01/25 12:22:27;;;;;;;33.92;7.90;;;11.10;99.90;;;;;;5093484;28;20087;-87
2024/01/25 12:24:57;;;;;;;43.45;7.40;;;11.80;99.90;;;;;;5092444;28;20066;-88
2024/01/25 12:27:25;;;;;;;38.03;8.07;;;12.40;99.90;;;;;;5092271;28;20131;-88
2024/01/25 12:29:53;;;;;;;28.98;7.32;;;13.10;99.90;;;;;;5091816;28;20078;-88
2024/01/25 12:32:19;;;;;;;33.80;6.47;;;13.50;99.90;;;;;;5073757;28;20159;-87
2024/01/25 12:34:56;;;;;;;39.28;8.07;;;13.90;99.90;;;;;;5073577;28;20055;-86
2024/01/25 12:37:22;;;;;;;30.45;6.80;;;14.40;99.90;;;;;;5092063;28;20125;-85